Time;durP1;ratioP1;P1;durP2;ratioP2;P2;SDS_P1;SDS_P2;PMS_P1;PMS_P2;Temp;Humidity;BMP_temperature;BMP_pressure;BME280_temperature;BME280_humidity;BME280_pressure;Samples;Min_cycle;Max_cycle;Signal;HPM_P1;HPM_P2
2023/02/06 00:01:47;;;;;;;23.10;4.43;;;5.40;99.90;;;;;;4097066;28;20090;-70
2023/02/06 00:03:47;;;;;;;19.08;4.82;;;5.30;99.90;;;;;;4100393;28;20390;-70
2023/02/06 00:05:56;;;;;;;14.52;3.60;;;5.30;99.90;;;;;;4096303;28;20037;-70
2023/02/06 00:07:57;;;;;;;15.60;3.53;;;5.30;99.90;;;;;;4093347;28;20106;-69
2023/02/06 00:09:57;;;;;;;16.70;3.53;;;5.30;99.90;;;;;;4082980;28;20039;-70
2023/02/06 00:11:58;;;;;;;17.45;3.85;;;5.30;99.90;;;;;;4097979;28;20078;-70
2023/02/06 00:13:59;;;;;;;14.85;3.72;;;5.30;99.90;;;;;;4100460;28;20512;-70
2023/02/06 00:16:00;;;;;;;17.65;4.15;;;5.30;99.90;;;;;;4095885;28;20359;-70
2023/02/06 00:18:00;;;;;;;13.73;4.07;;;5.30;99.90;;;;;;4097996;28;20326;-69
2023/02/06 00:20:01;;;;;;;18.27;4.32;;;5.20;99.90;;;;;;4100492;28;20027;-69
2023/02/06 00:22:02;;;;;;;11.85;3.65;;;5.20;99.90;;;;;;4095179;28;20493;-69
2023/02/06 00:24:03;;;;;;;14.48;3.67;;;5.10;99.90;;;;;;4098592;28;20124;-70
2023/02/06 00:26:05;;;;;;;11.70;3.53;;;5.10;99.90;;;;;;4081110;28;20028;-69
2023/02/06 00:28:06;;;;;;;18.58;4.18;;;5.00;99.90;;;;;;4096758;28;20049;-70
2023/02/06 00:30:07;;;;;;;15.68;4.32;;;5.00;99.90;;;;;;4099000;28;20102;-69
2023/02/06 00:32:07;;;;;;;17.00;4.90;;;5.00;99.90;;;;;;4095878;28;20028;-70
2023/02/06 00:34:08;;;;;;;18.17;5.28;;;5.00;99.90;;;;;;4099710;28;20031;-70
2023/02/06 00:36:09;;;;;;;13.90;4.43;;;5.00;99.90;;;;;;4096300;28;20031;-70
2023/02/06 00:38:10;;;;;;;10.60;3.75;;;5.00;99.90;;;;;;4098676;28;20041;-70
2023/02/06 00:40:11;;;;;;;15.18;3.28;;;5.00;99.90;;;;;;4095813;28;20398;-70
2023/02/06 00:42:11;;;;;;;14.82;3.72;;;5.00;99.90;;;;;;4096688;28;20051;-70
2023/02/06 00:44:12;;;;;;;9.43;2.80;;;4.90;99.90;;;;;;4098955;28;20410;-70
2023/02/06 00:46:12;;;;;;;14.30;3.05;;;4.90;99.90;;;;;;4096501;28;20066;-70
2023/02/06 00:48:15;;;;;;;14.18;3.63;;;4.90;99.90;;;;;;4098163;28;20035;-70
2023/02/06 00:50:16;;;;;;;15.63;3.50;;;4.90;99.90;;;;;;4095728;28;20050;-70
2023/02/06 00:52:17;;;;;;;10.20;2.80;;;4.90;99.90;;;;;;4097896;28;20037;-70
2023/02/06 00:54:19;;;;;;;14.48;4.10;;;4.90;99.90;;;;;;4095769;28;20110;-70
2023/02/06 00:56:20;;;;;;;9.30;3.30;;;4.90;99.90;;;;;;4095555;28;20128;-70
2023/02/06 00:58:21;;;;;;;18.90;4.28;;;4.80;99.90;;;;;;4096219;28;20522;-69
2023/02/06 01:00:21;;;;;;;19.48;3.80;;;4.80;99.90;;;;;;4096569;28;20047;-70
2023/02/06 01:02:22;;;;;;;17.88;4.38;;;4.70;99.90;;;;;;4096833;28;20042;-70
2023/02/06 01:04:23;;;;;;;26.15;4.15;;;4.70;99.90;;;;;;4098071;28;20030;-70
2023/02/06 01:06:23;;;;;;;22.13;3.78;;;4.70;99.90;;;;;;4095599;28;20114;-69
2023/02/06 01:08:24;;;;;;;18.90;4.07;;;4.70;99.90;;;;;;4096141;28;20043;-69
2023/02/06 01:10:25;;;;;;;15.85;3.47;;;4.70;99.90;;;;;;4097308;28;20418;-70
2023/02/06 01:12:25;;;;;;;31.42;5.05;;;4.60;99.90;;;;;;4094918;28;20062;-69
2023/02/06 01:14:26;;;;;;;21.05;4.30;;;4.60;99.90;;;;;;4096197;28;20114;-68
2023/02/06 01:16:27;;;;;;;19.15;4.18;;;4.60;99.90;;;;;;4095309;28;20087;-68
2023/02/06 01:18:27;;;;;;;26.27;4.05;;;4.60;99.90;;;;;;4084216;29;20114;-69
2023/02/06 01:20:28;;;;;;;20.80;4.22;;;4.60;99.90;;;;;;4095545;28;20447;-69
2023/02/06 01:22:31;;;;;;;20.48;4.45;;;4.70;99.90;;;;;;4095382;28;20058;-70
2023/02/06 01:24:32;;;;;;;13.07;3.35;;;4.60;99.90;;;;;;4096741;28;20517;-69
2023/02/06 01:26:32;;;;;;;14.27;3.58;;;4.60;99.90;;;;;;4094203;28;20043;-69
2023/02/06 01:28:42;;;;;;;18.67;3.92;;;4.60;99.90;;;;;;4097222;28;20098;-69
2023/02/06 01:30:43;;;;;;;15.75;3.55;;;4.60;99.90;;;;;;4091310;28;20491;-69
2023/02/06 01:32:43;;;;;;;20.90;3.95;;;4.70;99.90;;;;;;4095445;29;20090;-69
2023/02/06 01:34:44;;;;;;;18.35;4.25;;;4.70;99.90;;;;;;4097656;28;20031;-69
2023/02/06 01:36:44;;;;;;;19.45;3.85;;;4.70;99.90;;;;;;4094265;28;20044;-70
2023/02/06 01:38:46;;;;;;;17.45;4.20;;;4.70;99.90;;;;;;4096512;28;20050;-69
2023/02/06 01:40:47;;;;;;;13.63;3.20;;;4.70;99.90;;;;;;4096199;28;20039;-70
2023/02/06 01:42:47;;;;;;;16.10;3.28;;;4.70;99.90;;;;;;4098407;28;20034;-70
2023/02/06 01:44:48;;;;;;;15.18;3.75;;;4.70;99.90;;;;;;4096343;28;20261;-70
2023/02/06 01:46:52;;;;;;;17.10;3.95;;;4.70;99.90;;;;;;4093749;28;20039;-69
2023/02/06 01:48:53;;;;;;;15.07;3.75;;;4.70;99.90;;;;;;4097440;28;20039;-69
2023/02/06 01:50:55;;;;;;;13.65;3.85;;;4.70;99.90;;;;;;4097420;28;20047;-69
2023/02/06 01:52:56;;;;;;;16.65;3.72;;;4.70;99.90;;;;;;4096505;28;20114;-70
2023/02/06 01:55:00;;;;;;;16.48;3.33;;;4.60;99.90;;;;;;4094644;28;20487;-68
2023/02/06 01:57:05;;;;;;;10.75;2.65;;;4.60;99.90;;;;;;4093951;28;20082;-69
2023/02/06 01:59:06;;;;;;;11.32;3.17;;;4.60;99.90;;;;;;4096344;28;20058;-70
2023/02/06 02:01:07;;;;;;;18.23;3.47;;;4.60;99.90;;;;;;4094427;28;20114;-70
2023/02/06 02:03:08;;;;;;;15.85;3.58;;;4.60;99.90;;;;;;4096411;28;20458;-69
2023/02/06 02:05:10;;;;;;;18.08;3.80;;;4.60;99.90;;;;;;4092952;28;20051;-70
2023/02/06 02:07:18;;;;;;;28.65;4.63;;;4.50;99.90;;;;;;4093572;28;20040;-69
2023/02/06 02:09:19;;;;;;;19.55;3.67;;;4.60;99.90;;;;;;4095156;28;20067;-69
2023/02/06 02:11:24;;;;;;;25.63;5.30;;;4.50;99.90;;;;;;4097082;28;20039;-69
2023/02/06 02:13:24;;;;;;;16.58;3.97;;;4.50;99.90;;;;;;4097039;28;20047;-69
2023/02/06 02:15:37;;;;;;;15.70;3.60;;;4.50;99.90;;;;;;4095852;28;20042;-69
2023/02/06 02:17:57;;;;;;;12.32;3.28;;;4.50;99.90;;;;;;4077753;28;20448;-69
2023/02/06 02:20:34;;;;;;;27.33;5.05;;;4.50;99.90;;;;;;4093031;28;20045;-69
2023/02/06 02:22:51;;;;;;;20.55;4.90;;;4.40;99.90;;;;;;4080783;28;20494;-70
2023/02/06 02:25:03;;;;;;;18.38;3.88;;;4.50;99.90;;;;;;4093594;28;20039;-69
2023/02/06 02:27:18;;;;;;;15.85;3.38;;;4.40;99.90;;;;;;4092931;28;20048;-68
2023/02/06 02:30:09;;;;;;;16.35;3.85;;;4.40;99.90;;;;;;4096624;28;20051;-69
2023/02/06 02:32:31;;;;;;;18.65;3.67;;;4.40;99.90;;;;;;4072225;28;20043;-69
2023/02/06 02:35:01;;;;;;;13.20;3.53;;;4.40;99.90;;;;;;4095225;28;20066;-68
2023/02/06 02:37:25;;;;;;;13.00;3.28;;;4.40;99.90;;;;;;4093485;28;20027;-68
2023/02/06 02:39:35;;;;;;;14.82;3.20;;;4.40;99.90;;;;;;4093742;28;20050;-69
2023/02/06 02:41:54;;;;;;;11.98;3.28;;;4.40;99.90;;;;;;4094619;28;20499;-69
2023/02/06 02:44:08;;;;;;;10.82;3.22;;;4.40;99.90;;;;;;4095672;28;20035;-69
2023/02/06 02:46:26;;;;;;;18.15;3.75;;;4.40;99.90;;;;;;4095485;28;20051;-69
2023/02/06 02:48:35;;;;;;;17.33;3.47;;;4.40;99.90;;;;;;4091530;28;20035;-69
2023/02/06 02:50:37;;;;;;;18.13;3.60;;;4.40;99.90;;;;;;4095746;28;20093;-69
2023/02/06 02:52:38;;;;;;;17.85;3.70;;;4.40;99.90;;;;;;4094579;28;20039;-69
2023/02/06 02:54:39;;;;;;;19.63;4.20;;;4.30;99.90;;;;;;4096217;28;20046;-69
2023/02/06 02:56:41;;;;;;;19.45;3.63;;;4.30;99.90;;;;;;4097135;28;20035;-69
2023/02/06 02:58:43;;;;;;;19.48;4.00;;;4.30;99.90;;;;;;4095316;28;20035;-69
2023/02/06 03:00:47;;;;;;;19.33;3.95;;;4.30;99.90;;;;;;4095923;28;20045;-70
2023/02/06 03:02:51;;;;;;;24.08;4.60;;;4.30;99.90;;;;;;4095115;28;20035;-69
2023/02/06 03:04:56;;;;;;;17.23;3.72;;;4.30;99.90;;;;;;4093877;28;20027;-69
2023/02/06 03:07:24;;;;;;;18.13;3.38;;;4.30;99.90;;;;;;4096745;28;20386;-69
2023/02/06 03:09:44;;;;;;;20.58;3.63;;;4.30;99.90;;;;;;4085454;28;20104;-69
2023/02/06 03:12:10;;;;;;;17.33;3.88;;;4.30;99.90;;;;;;4086021;28;20114;-69
2023/02/06 03:14:30;;;;;;;18.33;4.03;;;4.30;99.90;;;;;;4044836;28;20074;-69
2023/02/06 03:16:40;;;;;;;18.30;3.58;;;4.30;99.90;;;;;;4078207;28;20044;-68
2023/02/06 03:18:54;;;;;;;15.55;3.55;;;4.30;99.90;;;;;;4069323;29;20403;-69
2023/02/06 03:20:56;;;;;;;17.73;3.88;;;4.30;99.90;;;;;;4094657;28;20042;-69
2023/02/06 03:22:59;;;;;;;17.33;3.95;;;4.30;99.90;;;;;;4079464;29;20079;-69
2023/02/06 03:25:01;;;;;;;16.08;3.17;;;4.30;99.90;;;;;;4097052;28;20028;-68
2023/02/06 03:27:07;;;;;;;22.80;3.88;;;4.30;99.90;;;;;;4095901;28;20035;-69
2023/02/06 03:29:11;;;;;;;18.00;4.10;;;4.30;99.90;;;;;;4096884;28;20391;-68
2023/02/06 03:31:16;;;;;;;19.70;4.07;;;4.30;99.90;;;;;;4095607;28;20049;-69
2023/02/06 03:33:22;;;;;;;25.98;4.75;;;4.20;99.90;;;;;;4093836;28;20126;-69
2023/02/06 03:35:28;;;;;;;22.08;5.07;;;4.20;99.90;;;;;;4096873;28;20121;-69
2023/02/06 03:37:30;;;;;;;22.80;4.53;;;4.10;99.90;;;;;;4079217;29;20068;-69
2023/02/06 03:39:30;;;;;;;35.58;6.57;;;4.10;99.90;;;;;;4095949;28;20041;-70
2023/02/06 03:41:35;;;;;;;20.58;4.82;;;4.10;99.90;;;;;;4095079;28;20051;-69
2023/02/06 03:43:36;;;;;;;22.40;5.82;;;4.00;99.90;;;;;;4096535;28;20119;-68
2023/02/06 03:45:40;;;;;;;18.50;4.45;;;4.00;99.90;;;;;;4095635;28;20074;-69
2023/02/06 03:47:43;;;;;;;20.58;4.60;;;4.00;99.90;;;;;;4096424;28;20043;-69
2023/02/06 03:49:46;;;;;;;16.80;3.90;;;4.00;99.90;;;;;;4094689;28;20035;-69
2023/02/06 03:51:55;;;;;;;25.48;4.82;;;4.00;99.90;;;;;;4097058;28;20055;-69
2023/02/06 03:53:58;;;;;;;28.35;5.85;;;3.90;99.90;;;;;;4096719;28;20035;-69
2023/02/06 03:56:06;;;;;;;24.23;5.40;;;3.90;99.90;;;;;;4096151;28;20126;-68
2023/02/06 03:58:12;;;;;;;24.58;5.13;;;3.90;99.90;;;;;;4092852;28;20070;-69
2023/02/06 04:00:14;;;;;;;21.58;4.80;;;3.90;99.90;;;;;;4095899;28;20031;-69
2023/02/06 04:02:16;;;;;;;27.23;5.30;;;3.90;99.90;;;;;;4095617;28;20075;-69
2023/02/06 04:04:20;;;;;;;38.45;5.97;;;3.90;99.90;;;;;;4096077;28;20039;-70
2023/02/06 04:06:21;;;;;;;29.30;6.13;;;3.80;99.90;;;;;;4092784;28;20071;-69
2023/02/06 04:08:21;;;;;;;17.15;4.00;;;3.80;99.90;;;;;;4095677;28;20368;-69
2023/02/06 04:10:22;;;;;;;15.70;4.03;;;3.80;99.90;;;;;;4096199;28;20062;-69
2023/02/06 04:12:23;;;;;;;22.80;4.95;;;3.80;99.90;;;;;;4096351;28;20035;-69
2023/02/06 04:14:24;;;;;;;23.02;4.95;;;3.80;99.90;;;;;;4095244;28;20065;-69
2023/02/06 04:16:25;;;;;;;12.15;4.22;;;3.90;99.90;;;;;;4093882;28;20074;-70
2023/02/06 04:18:25;;;;;;;13.32;4.28;;;3.80;99.90;;;;;;4096282;28;20083;-69
2023/02/06 04:20:26;;;;;;;19.63;4.13;;;3.80;99.90;;;;;;4093908;28;20047;-69
2023/02/06 04:22:27;;;;;;;17.63;4.07;;;3.80;99.90;;;;;;4094011;28;20031;-69
2023/02/06 04:24:28;;;;;;;11.82;3.25;;;3.80;99.90;;;;;;4095899;28;20098;-69
2023/02/06 04:26:28;;;;;;;20.52;4.28;;;3.80;99.90;;;;;;4093951;28;20042;-70
2023/02/06 04:28:29;;;;;;;16.08;4.25;;;3.80;99.90;;;;;;4094598;28;20946;-68
2023/02/06 04:30:29;;;;;;;12.95;3.80;;;3.80;99.90;;;;;;4096192;28;20454;-69
2023/02/06 04:32:30;;;;;;;14.40;3.95;;;3.80;99.90;;;;;;4093779;28;20083;-69
2023/02/06 04:34:32;;;;;;;13.10;3.30;;;3.80;99.90;;;;;;4100640;28;20588;-69
2023/02/06 04:36:33;;;;;;;15.50;3.97;;;3.80;99.90;;;;;;4093902;28;20039;-69
2023/02/06 04:38:34;;;;;;;11.85;3.03;;;3.90;99.90;;;;;;4094441;28;20067;-68
2023/02/06 04:40:34;;;;;;;9.95;3.13;;;3.90;99.90;;;;;;4094577;28;20042;-70
2023/02/06 04:42:35;;;;;;;13.27;4.47;;;3.90;99.90;;;;;;4097779;28;20094;-70
2023/02/06 04:44:37;;;;;;;19.98;3.92;;;3.90;99.90;;;;;;4095206;28;20032;-69
2023/02/06 04:46:38;;;;;;;19.58;5.25;;;4.00;99.90;;;;;;4093344;28;20050;-69
2023/02/06 04:48:38;;;;;;;16.63;4.72;;;4.00;99.90;;;;;;4094605;28;20039;-69
2023/02/06 04:50:39;;;;;;;12.13;3.83;;;4.00;99.90;;;;;;4095374;28;20141;-69
2023/02/06 04:52:39;;;;;;;10.45;3.60;;;3.90;99.90;;;;;;4094060;28;20036;-70
2023/02/06 04:54:40;;;;;;;12.73;3.45;;;3.90;99.90;;;;;;4095496;28;20178;-69
2023/02/06 04:56:40;;;;;;;17.23;3.45;;;4.00;99.90;;;;;;4099953;28;20043;-69
2023/02/06 04:58:41;;;;;;;17.52;4.30;;;4.00;99.90;;;;;;4095242;28;20051;-69
2023/02/06 05:00:41;;;;;;;9.45;3.22;;;4.00;99.90;;;;;;4095344;28;20035;-70
2023/02/06 05:02:42;;;;;;;8.77;2.97;;;4.00;99.90;;;;;;4094898;28;20042;-70
2023/02/06 05:04:43;;;;;;;11.85;3.17;;;4.00;99.90;;;;;;4092124;28;20031;-70
2023/02/06 05:06:43;;;;;;;6.70;2.47;;;4.00;99.90;;;;;;4088857;28;20051;-70
2023/02/06 05:08:44;;;;;;;11.80;3.20;;;4.00;99.90;;;;;;4092541;28;20459;-69
2023/02/06 05:10:44;;;;;;;11.43;2.88;;;4.00;99.90;;;;;;4093683;28;20039;-69
2023/02/06 05:12:46;;;;;;;14.88;2.97;;;4.00;99.90;;;;;;4094205;28;20043;-69
2023/02/06 05:14:46;;;;;;;10.05;3.47;;;4.00;99.90;;;;;;4093255;28;20451;-69
2023/02/06 05:16:47;;;;;;;12.65;3.05;;;4.00;99.90;;;;;;4090898;28;20039;-69
2023/02/06 05:18:52;;;;;;;12.13;3.05;;;4.00;99.90;;;;;;4091041;28;20042;-69
2023/02/06 05:20:53;;;;;;;9.55;3.63;;;4.00;99.90;;;;;;4093966;28;20037;-69
2023/02/06 05:22:53;;;;;;;12.75;3.25;;;4.00;99.90;;;;;;4095599;28;20050;-69
2023/02/06 05:24:54;;;;;;;10.95;3.10;;;4.00;99.90;;;;;;4094609;28;20499;-69
2023/02/06 05:26:57;;;;;;;9.10;2.90;;;4.00;99.90;;;;;;4090091;28;20053;-70
2023/02/06 05:28:57;;;;;;;16.75;3.45;;;4.00;99.90;;;;;;4092889;29;20047;-69
2023/02/06 05:31:02;;;;;;;19.42;3.95;;;4.00;99.90;;;;;;4095879;28;20039;-69
2023/02/06 05:33:03;;;;;;;19.00;4.40;;;3.90;99.90;;;;;;4094953;28;20035;-70
2023/02/06 05:35:04;;;;;;;15.43;4.22;;;4.00;99.90;;;;;;4092008;28;20499;-70
2023/02/06 05:37:04;;;;;;;17.40;4.00;;;4.00;99.90;;;;;;4090672;28;20051;-68
2023/02/06 05:39:05;;;;;;;25.00;4.85;;;4.00;99.90;;;;;;4095215;28;20039;-69
2023/02/06 05:41:06;;;;;;;14.35;3.97;;;4.00;99.90;;;;;;4092256;28;20082;-70
2023/02/06 05:43:07;;;;;;;19.70;5.05;;;4.00;99.90;;;;;;4094805;28;20035;-69
2023/02/06 05:45:08;;;;;;;18.02;4.22;;;4.10;99.90;;;;;;4089904;28;20048;-70
2023/02/06 05:47:09;;;;;;;15.20;4.70;;;4.10;99.90;;;;;;4092860;28;20494;-69
2023/02/06 05:49:09;;;;;;;18.67;4.85;;;4.10;99.90;;;;;;4095860;28;20035;-70
2023/02/06 05:51:10;;;;;;;12.20;3.90;;;4.10;99.90;;;;;;4094595;28;20045;-69
2023/02/06 05:53:11;;;;;;;11.10;3.50;;;4.10;99.90;;;;;;4092786;28;20043;-69
2023/02/06 05:55:11;;;;;;;15.85;4.05;;;4.10;99.90;;;;;;4092729;28;20066;-70
2023/02/06 05:57:12;;;;;;;17.02;4.22;;;4.20;99.90;;;;;;4092137;28;20131;-70
2023/02/06 05:59:13;;;;;;;13.25;4.18;;;4.20;99.90;;;;;;4093336;28;20030;-69
2023/02/06 06:01:13;;;;;;;8.50;3.80;;;4.20;99.90;;;;;;4096835;28;21060;-70
2023/02/06 06:03:14;;;;;;;11.27;3.92;;;4.20;99.90;;;;;;4094725;28;20070;-69
2023/02/06 06:05:14;;;;;;;8.23;3.20;;;4.20;99.90;;;;;;4092378;28;20491;-70
2023/02/06 06:07:15;;;;;;;8.13;3.28;;;4.20;99.90;;;;;;4091149;28;20035;-70
2023/02/06 06:09:16;;;;;;;5.85;3.00;;;4.30;99.90;;;;;;4090885;28;20130;-70
2023/02/06 06:11:17;;;;;;;9.13;3.47;;;4.30;99.90;;;;;;4087916;28;20045;-70
2023/02/06 06:13:18;;;;;;;6.45;3.00;;;4.20;99.90;;;;;;4089111;28;20037;-70
2023/02/06 06:15:18;;;;;;;7.68;3.30;;;4.20;99.90;;;;;;4087542;28;20146;-70
2023/02/06 06:17:19;;;;;;;5.80;3.20;;;4.30;99.90;;;;;;4093010;28;20035;-70
2023/02/06 06:19:20;;;;;;;5.63;3.10;;;4.30;99.90;;;;;;4090062;28;21154;-70
2023/02/06 06:21:21;;;;;;;3.88;2.22;;;4.30;99.90;;;;;;4087731;28;20122;-70
2023/02/06 06:23:22;;;;;;;2.90;2.08;;;4.20;99.90;;;;;;4089637;28;20038;-70
2023/02/06 06:25:23;;;;;;;4.45;2.08;;;4.20;99.90;;;;;;4093150;28;20030;-71
2023/02/06 06:27:23;;;;;;;5.78;2.47;;;4.20;99.90;;;;;;4085418;28;20048;-70
2023/02/06 06:29:24;;;;;;;4.93;2.90;;;4.20;99.90;;;;;;4086459;28;20143;-71
2023/02/06 06:31:25;;;;;;;3.35;2.13;;;4.20;99.90;;;;;;4090885;28;20284;-70
2023/02/06 06:33:25;;;;;;;6.72;2.20;;;4.20;99.90;;;;;;4092325;28;20034;-71
2023/02/06 06:35:26;;;;;;;6.05;2.88;;;4.20;99.90;;;;;;4082576;28;21023;-70
2023/02/06 06:37:27;;;;;;;4.43;2.47;;;4.20;99.90;;;;;;4077454;29;20044;-70
2023/02/06 06:39:27;;;;;;;4.90;2.80;;;4.20;99.90;;;;;;4093494;28;20035;-71
2023/02/06 06:41:28;;;;;;;3.97;2.47;;;4.20;99.90;;;;;;4091358;28;20035;-71
2023/02/06 06:43:29;;;;;;;6.78;2.75;;;4.20;99.90;;;;;;4090124;28;20038;-70
2023/02/06 06:45:30;;;;;;;3.15;2.10;;;4.20;99.90;;;;;;4072869;29;20123;-70
2023/02/06 06:47:30;;;;;;;4.43;2.45;;;4.20;99.90;;;;;;4090391;28;20061;-71
2023/02/06 06:49:32;;;;;;;3.20;2.40;;;4.20;99.90;;;;;;4092520;28;20040;-69
2023/02/06 06:51:32;;;;;;;4.63;2.53;;;4.20;99.90;;;;;;4087655;28;20791;-70
2023/02/06 06:53:33;;;;;;;3.58;2.50;;;4.20;99.90;;;;;;4087703;28;20102;-71
2023/02/06 06:55:34;;;;;;;3.58;2.30;;;4.20;99.90;;;;;;4089887;28;20070;-71
2023/02/06 06:57:34;;;;;;;4.07;2.65;;;4.20;99.90;;;;;;4087412;28;20061;-70
2023/02/06 06:59:35;;;;;;;4.68;2.75;;;4.20;99.90;;;;;;4100515;28;20328;-70
2023/02/06 07:01:35;;;;;;;4.35;2.45;;;4.20;99.90;;;;;;4095788;28;20043;-70
2023/02/06 07:03:36;;;;;;;5.13;2.95;;;4.20;99.90;;;;;;4096720;28;20065;-70
2023/02/06 07:05:38;;;;;;;5.85;2.90;;;4.20;99.90;;;;;;4096010;28;20043;-70
2023/02/06 07:07:38;;;;;;;3.83;2.80;;;4.20;99.90;;;;;;4094844;28;20055;-70
2023/02/06 07:09:39;;;;;;;4.72;2.83;;;4.20;99.90;;;;;;4093741;28;20668;-71
2023/02/06 07:11:39;;;;;;;5.25;3.20;;;4.20;99.90;;;;;;4096580;28;20431;-71
2023/02/06 07:13:41;;;;;;;5.60;2.95;;;4.20;99.90;;;;;;4096672;28;20035;-71
2023/02/06 07:15:42;;;;;;;7.70;4.03;;;4.20;99.90;;;;;;4096493;28;20038;-70
2023/02/06 07:17:43;;;;;;;6.45;3.97;;;4.20;99.90;;;;;;4096658;28;20039;-71
2023/02/06 07:19:46;;;;;;;6.10;3.28;;;4.20;99.90;;;;;;4096347;28;20038;-71
2023/02/06 07:21:47;;;;;;;5.57;3.67;;;4.20;99.90;;;;;;4091515;28;20042;-71
2023/02/06 07:23:48;;;;;;;5.53;3.28;;;4.20;99.90;;;;;;4096138;28;20043;-71
2023/02/06 07:25:48;;;;;;;5.97;3.28;;;4.20;99.90;;;;;;4094800;28;20039;-71
2023/02/06 07:27:49;;;;;;;8.27;3.63;;;4.20;99.90;;;;;;4097084;28;20130;-72
2023/02/06 07:29:49;;;;;;;7.93;3.85;;;4.20;99.90;;;;;;4094340;28;20065;-71
2023/02/06 07:31:50;;;;;;;7.07;3.45;;;4.20;99.90;;;;;;4095490;28;20033;-71
2023/02/06 07:33:50;;;;;;;6.38;3.85;;;4.20;99.90;;;;;;4096852;28;21955;-71
2023/02/06 07:35:51;;;;;;;6.53;3.97;;;4.20;99.90;;;;;;4094907;28;20086;-71
2023/02/06 07:37:52;;;;;;;7.53;3.92;;;4.20;99.90;;;;;;4094837;28;20046;-72
2023/02/06 07:39:53;;;;;;;6.22;3.40;;;4.20;99.90;;;;;;4095344;28;20110;-71
2023/02/06 07:41:54;;;;;;;7.18;3.70;;;4.20;99.90;;;;;;4094757;28;20476;-71
2023/02/06 07:43:54;;;;;;;6.57;3.33;;;4.20;99.90;;;;;;4096179;28;20043;-72
2023/02/06 07:45:59;;;;;;;7.15;3.65;;;4.20;99.90;;;;;;4092687;28;20396;-71
2023/02/06 07:48:03;;;;;;;6.90;3.47;;;4.20;99.90;;;;;;4086426;28;20046;-72
2023/02/06 07:50:03;;;;;;;6.72;3.72;;;4.20;99.90;;;;;;4096117;28;20058;-72
2023/02/06 07:52:04;;;;;;;5.88;3.63;;;4.20;99.90;;;;;;4092696;28;20118;-71
2023/02/06 07:54:05;;;;;;;6.88;3.95;;;4.20;99.90;;;;;;4095201;28;20047;-71
2023/02/06 07:56:13;;;;;;;6.82;3.70;;;4.20;99.90;;;;;;4090348;28;20031;-71
2023/02/06 07:58:14;;;;;;;8.35;4.10;;;4.20;99.90;;;;;;4096472;28;20679;-71
2023/02/06 08:00:15;;;;;;;5.65;3.80;;;4.20;99.90;;;;;;4095604;28;20114;-71
2023/02/06 08:02:16;;;;;;;8.05;3.88;;;4.30;99.90;;;;;;4095820;28;20090;-71
2023/02/06 08:04:16;;;;;;;5.70;3.42;;;4.20;99.90;;;;;;4094183;28;20043;-72
2023/02/06 08:06:17;;;;;;;7.07;3.70;;;4.30;99.90;;;;;;4093632;28;20057;-71
2023/02/06 08:08:18;;;;;;;5.50;3.30;;;4.30;99.90;;;;;;4092696;28;20039;-71
2023/02/06 08:10:18;;;;;;;7.53;3.67;;;4.30;99.90;;;;;;4079286;28;20452;-71
2023/02/06 08:12:19;;;;;;;9.93;4.18;;;4.30;99.90;;;;;;4091163;28;20070;-71
2023/02/06 08:14:19;;;;;;;7.82;3.85;;;4.30;99.90;;;;;;4091201;28;20031;-71
2023/02/06 08:16:21;;;;;;;7.07;3.88;;;4.30;99.90;;;;;;4090336;28;20031;-71
2023/02/06 08:18:22;;;;;;;7.97;4.00;;;4.30;99.90;;;;;;4089700;28;20118;-71
2023/02/06 08:20:22;;;;;;;7.93;4.05;;;4.30;99.90;;;;;;4091514;28;20122;-71
2023/02/06 08:22:23;;;;;;;8.60;4.32;;;4.30;99.90;;;;;;4080861;29;20039;-72
2023/02/06 08:24:23;;;;;;;10.15;4.53;;;4.30;99.90;;;;;;4092253;28;20365;-71
2023/02/06 08:26:26;;;;;;;8.77;4.13;;;4.30;99.90;;;;;;4087963;28;20086;-72
2023/02/06 08:28:27;;;;;;;6.72;3.58;;;4.40;99.90;;;;;;4088404;28;20063;-72
2023/02/06 08:30:28;;;;;;;7.13;3.83;;;4.40;99.90;;;;;;4085882;28;20062;-72
2023/02/06 08:32:33;;;;;;;9.88;4.60;;;4.40;99.90;;;;;;4091610;28;20412;-72
2023/02/06 08:34:35;;;;;;;6.63;3.88;;;4.40;99.90;;;;;;4092305;28;20040;-71
2023/02/06 08:36:36;;;;;;;8.30;3.50;;;4.40;99.90;;;;;;4093894;28;20487;-72
2023/02/06 08:38:37;;;;;;;6.88;3.67;;;4.40;99.90;;;;;;4092561;28;20038;-71
2023/02/06 08:40:38;;;;;;;8.20;4.47;;;4.40;99.90;;;;;;4090165;28;20668;-71
2023/02/06 08:42:38;;;;;;;8.15;4.30;;;4.40;99.90;;;;;;4092639;28;20039;-71
2023/02/06 08:44:39;;;;;;;9.30;4.50;;;4.40;99.90;;;;;;4093395;28;20039;-71
2023/02/06 08:46:40;;;;;;;8.85;4.75;;;4.40;99.90;;;;;;4092067;28;20472;-72
2023/02/06 08:48:41;;;;;;;8.68;4.60;;;4.40;99.90;;;;;;4092819;28;20438;-71
2023/02/06 08:50:42;;;;;;;8.35;3.88;;;4.50;99.90;;;;;;4088218;28;20028;-72
2023/02/06 08:52:43;;;;;;;10.85;4.60;;;4.50;99.90;;;;;;4089974;28;20054;-72
2023/02/06 08:54:43;;;;;;;9.98;4.90;;;4.50;99.90;;;;;;4091274;28;20042;-72
2023/02/06 08:56:44;;;;;;;11.98;5.10;;;4.50;99.90;;;;;;4092303;28;20036;-72
2023/02/06 08:58:45;;;;;;;9.48;4.20;;;4.60;99.90;;;;;;4092419;28;20043;-72
2023/02/06 09:00:45;;;;;;;8.55;4.35;;;4.60;99.90;;;;;;4090943;28;20373;-72
2023/02/06 09:02:46;;;;;;;9.02;3.70;;;4.60;99.90;;;;;;4091560;28;20031;-72
2023/02/06 09:04:47;;;;;;;9.35;3.83;;;4.60;99.90;;;;;;4089635;28;20101;-72
2023/02/06 09:06:48;;;;;;;9.15;4.15;;;4.70;99.90;;;;;;4091475;28;20114;-72
2023/02/06 09:08:48;;;;;;;8.18;4.13;;;4.70;99.90;;;;;;4090101;28;20055;-72
2023/02/06 09:10:49;;;;;;;9.50;4.50;;;4.70;99.90;;;;;;4091497;28;20035;-72
2023/02/06 09:12:53;;;;;;;8.20;3.83;;;4.70;99.90;;;;;;4086605;28;20028;-72
2023/02/06 09:14:53;;;;;;;10.80;4.40;;;4.80;99.90;;;;;;4084675;28;20040;-72
2023/02/06 09:16:56;;;;;;;8.50;3.92;;;4.80;99.90;;;;;;4089547;28;20518;-72
2023/02/06 09:19:00;;;;;;;6.32;4.05;;;4.80;99.90;;;;;;4091059;28;20167;-72
2023/02/06 09:21:15;;;;;;;7.40;3.75;;;4.70;99.90;;;;;;4089509;28;20407;-72
2023/02/06 09:23:16;;;;;;;9.95;4.25;;;4.80;99.90;;;;;;4080334;28;20337;-72
2023/02/06 09:25:17;;;;;;;11.85;4.40;;;4.80;99.90;;;;;;4087757;28;20039;-72
2023/02/06 09:27:18;;;;;;;9.38;4.38;;;4.80;99.90;;;;;;4091003;28;20039;-72
2023/02/06 09:29:19;;;;;;;9.73;4.30;;;4.80;99.90;;;;;;4088475;28;20039;-73
2023/02/06 09:31:19;;;;;;;12.70;5.53;;;4.80;99.90;;;;;;4087175;28;20435;-72
2023/02/06 09:33:20;;;;;;;10.63;5.20;;;4.90;99.90;;;;;;4088862;28;20057;-72
2023/02/06 09:35:20;;;;;;;12.77;5.28;;;4.80;99.90;;;;;;4086413;28;20301;-72
2023/02/06 09:37:22;;;;;;;13.35;6.05;;;4.80;99.90;;;;;;4083261;28;20130;-72
2023/02/06 09:39:23;;;;;;;12.25;5.53;;;4.80;99.90;;;;;;4085244;28;20110;-72
2023/02/06 09:41:44;;;;;;;14.05;6.43;;;4.80;99.90;;;;;;4082494;28;20047;-72
2023/02/06 09:43:53;;;;;;;11.80;5.75;;;4.90;99.90;;;;;;4088110;28;20035;-72
2023/02/06 09:46:06;;;;;;;12.15;5.05;;;4.90;99.90;;;;;;4086166;28;20396;-72
2023/02/06 09:48:34;;;;;;;11.95;6.03;;;4.90;99.90;;;;;;4088493;28;20039;-72
2023/02/06 09:51:03;;;;;;;14.77;6.18;;;5.00;99.90;;;;;;4083700;28;20074;-72
2023/02/06 09:53:42;;;;;;;10.43;5.00;;;4.80;99.90;;;;;;4085429;28;20122;-71
2023/02/06 09:55:48;;;;;;;11.85;5.15;;;4.80;99.90;;;;;;4023096;29;20036;-72
2023/02/06 09:57:51;;;;;;;12.85;5.68;;;4.80;99.90;;;;;;4025417;29;20029;-72
2023/02/06 10:00:05;;;;;;;13.30;5.68;;;4.90;99.90;;;;;;4014860;29;20029;-72
2023/02/06 10:02:17;;;;;;;11.43;5.38;;;4.90;99.90;;;;;;4065885;29;20036;-73
2023/02/06 10:04:36;;;;;;;18.50;6.75;;;5.00;99.90;;;;;;4083028;28;20035;-72
2023/02/06 10:07:11;;;;;;;19.92;6.72;;;5.00;99.90;;;;;;4087564;28;20035;-72
2023/02/06 10:09:18;;;;;;;18.63;7.65;;;5.10;99.90;;;;;;4069886;29;20054;-72
2023/02/06 10:11:56;;;;;;;13.48;6.95;;;5.00;99.90;;;;;;4088971;28;20106;-72
2023/02/06 10:14:02;;;;;;;14.15;6.20;;;5.10;99.90;;;;;;4090875;28;20134;-72
2023/02/06 10:16:16;;;;;;;17.40;6.60;;;5.10;99.90;;;;;;4087391;28;20073;-72
2023/02/06 10:18:39;;;;;;;21.30;7.93;;;5.10;99.90;;;;;;4088129;28;20027;-72
2023/02/06 10:21:06;;;;;;;16.95;7.30;;;5.10;99.90;;;;;;4087457;28;20071;-72
2023/02/06 10:23:25;;;;;;;19.35;7.28;;;5.20;99.90;;;;;;4088006;28;20043;-71
2023/02/06 10:25:32;;;;;;;17.45;6.82;;;5.30;99.90;;;;;;4086975;28;20058;-72
2023/02/06 10:27:34;;;;;;;14.25;6.75;;;5.30;99.90;;;;;;4084901;28;20113;-72
2023/02/06 10:29:35;;;;;;;23.17;7.53;;;5.30;99.90;;;;;;4088762;28;20047;-71
2023/02/06 10:31:49;;;;;;;17.48;7.00;;;5.30;99.90;;;;;;4088194;28;20047;-72
2023/02/06 10:34:09;;;;;;;18.73;7.38;;;5.30;99.90;;;;;;4086765;28;20526;-72
2023/02/06 10:36:39;;;;;;;23.15;8.07;;;5.40;99.90;;;;;;4087002;28;20482;-72
2023/02/06 10:39:06;;;;;;;20.42;7.32;;;5.40;99.90;;;;;;4053248;29;20040;-72
2023/02/06 10:41:17;;;;;;;17.95;7.72;;;5.40;99.90;;;;;;4079804;28;20114;-72
2023/02/06 10:43:48;;;;;;;16.25;7.57;;;5.40;99.90;;;;;;4086499;28;20035;-72
2023/02/06 10:46:09;;;;;;;21.42;9.23;;;5.40;99.90;;;;;;4086463;28;20038;-71
2023/02/06 10:48:43;;;;;;;30.50;11.23;;;5.40;99.90;;;;;;4088785;28;20039;-71
2023/02/06 10:50:46;;;;;;;;;;;5.40;99.90;;;;;;4088024;28;20372;-72